Thurmont, Maryland
Current Conditions -  °F | °C
As of 6:53 PM on Monday 22 Dec 2014 (Local Time) from KRYT Reporting Station
Freezing Rain Freezing Rain  
Wind Chill:   Ceiling: 400
Heat Index:   Visibility: 1.2mi
Dew Point: -1°   Wind: 0mph
Humidity: 92%   Direction: NA
Pressure: 30.14"   Gusts: NA
Location:  39.62°N, 77.41°W
Report Text: KRYT 222353Z AUTO 00000KT 1 1/4SM -FZRA BR BKN004 OVC009 00/M01 A3014 RMK AO2 UPB19E31FZRAE19B31 SLP226 P0002 60011 T00001011 10006 21006 55005 $
Loading
Personal Weather Stations






























Interactive Weather Map New forecast layout! Learn more

10-Day Weather Forecast

Advertisements
Track Severe Weather on mobile